createdAt,value
2019-04-14T00:01:23.790Z,100397.44
2019-04-14T00:04:11.457Z,100397.84
2019-04-14T00:06:41.953Z,100388.71
2019-04-14T00:09:16.514Z,100388.98
2019-04-14T00:11:46.140Z,100389.40
2019-04-14T00:14:16.377Z,100392.81
2019-04-14T00:16:46.748Z,100388.09
2019-04-14T00:19:17.159Z,100386.60
2019-04-14T00:21:47.611Z,100383.16
2019-04-14T00:24:18.345Z,100373.65
2019-04-14T00:26:48.791Z,100379.28
2019-04-14T00:29:19.495Z,100379.30
2019-04-14T00:31:51.066Z,100376.13
2019-04-14T00:34:37.872Z,100381.27
2019-04-14T00:37:18.461Z,100377.84
2019-04-14T00:39:55.937Z,100385.84
2019-04-14T00:42:29.863Z,100381.17
2019-04-14T00:45:00.860Z,100380.11
2019-04-14T00:47:33.132Z,100377.27
2019-04-14T00:50:03.610Z,100377.20
2019-04-14T00:52:34.077Z,100375.78
2019-04-14T00:55:05.288Z,100376.05
2019-04-14T00:57:35.553Z,100377.42
2019-04-14T01:00:08.221Z,100376.99
2019-04-14T01:02:38.521Z,100387.44
2019-04-14T01:05:08.974Z,100391.58
2019-04-14T01:07:39.149Z,100389.07
2019-04-14T01:10:10.307Z,100383.80
2019-04-14T01:12:40.929Z,100386.35
2019-04-14T01:15:11.502Z,100384.11
2019-04-14T01:17:41.781Z,100384.03
2019-04-14T01:20:12.417Z,100385.05
2019-04-14T01:22:42.440Z,100386.92
2019-04-14T01:25:12.844Z,100383.74
2019-04-14T01:27:42.906Z,100381.75
2019-04-14T01:30:13.341Z,100377.00
2019-04-14T01:32:43.642Z,100378.60
2019-04-14T01:35:13.856Z,100375.44
2019-04-14T01:37:44.093Z,100371.19
2019-04-14T01:40:14.223Z,100376.23
2019-04-14T01:42:44.227Z,100370.75
2019-04-14T01:45:16.448Z,100374.54
2019-04-14T01:47:46.756Z,100369.89
2019-04-14T01:50:19.056Z,100370.56
2019-04-14T01:52:50.228Z,100370.23
2019-04-14T01:55:24.479Z,100372.81
2019-04-14T01:57:56.769Z,100370.41
2019-04-14T02:00:46.670Z,100374.77
2019-04-14T02:03:17.063Z,100377.47
2019-04-14T02:05:47.478Z,100377.47
2019-04-14T02:08:17.720Z,100382.26
2019-04-14T02:10:47.859Z,100382.87
2019-04-14T02:13:18.190Z,100383.78
2019-04-14T02:15:48.515Z,100387.25
2019-04-14T02:18:18.551Z,100382.34
2019-04-14T02:20:49.065Z,100390.55
2019-04-14T02:23:19.251Z,100387.29
2019-04-14T02:25:49.380Z,100394.59
2019-04-14T02:28:19.903Z,100395.95
2019-04-14T02:31:00.212Z,100392.70
2019-04-14T02:33:44.715Z,100386.34
2019-04-14T02:36:21.942Z,100390.69
2019-04-14T02:39:01.829Z,100384.08
2019-04-14T02:41:40.895Z,100397.14
2019-04-14T02:43:58.095Z,100395.13
2019-04-14T02:46:26.268Z,100392.59
2019-04-14T02:49:00.280Z,100391.92
2019-04-14T02:58:59.902Z,100396.06
2019-04-14T03:01:31.594Z,100398.06
2019-04-14T03:03:56.355Z,100393.36
2019-04-14T03:06:35.334Z,100399.63
2019-04-14T03:11:31.266Z,100404.74
2019-04-14T03:14:07.595Z,100402.16
2019-04-14T03:16:39.680Z,100405.63
2019-04-14T03:19:14.079Z,100403.37
2019-04-14T03:24:18.538Z,100411.77
2019-04-14T03:27:18.429Z,100410.52
2019-04-14T03:29:44.937Z,100412.06
2019-04-14T03:32:28.892Z,100404.59
2019-04-14T03:34:55.180Z,100407.27
2019-04-14T03:37:39.579Z,100408.58
2019-04-14T03:39:48.068Z,100406.31
2019-04-14T03:42:21.262Z,100410.04
2019-04-14T03:44:49.524Z,100410.81
2019-04-14T03:47:21.317Z,100408.58
2019-04-14T03:49:52.913Z,100409.48
2019-04-14T03:52:26.888Z,100406.81
2019-04-14T03:54:44.026Z,100412.56
2019-04-14T03:56:59.857Z,100408.22
2019-04-14T03:59:30.284Z,100404.73
2019-04-14T04:02:00.786Z,100405.26
2019-04-14T04:04:31.492Z,100401.41
2019-04-14T04:07:01.848Z,100395.45
2019-04-14T04:09:36.494Z,100404.77
2019-04-14T04:12:05.902Z,100405.77
2019-04-14T04:14:35.756Z,100408.12
2019-04-14T04:17:19.327Z,100403.94
2019-04-14T04:19:56.148Z,100406.30
2019-04-14T04:22:43.482Z,100410.76
2019-04-14T04:25:14.513Z,100410.23
2019-04-14T04:27:51.157Z,100411.50
2019-04-14T04:30:31.832Z,100414.26
2019-04-14T04:33:02.889Z,100418.34
2019-04-14T04:35:50.069Z,100412.80
2019-04-14T04:38:33.522Z,100415.66
2019-04-14T04:41:03.772Z,100414.87
2019-04-14T04:43:34.109Z,100424.36
2019-04-14T04:46:04.744Z,100419.91
2019-04-14T04:48:34.950Z,100420.07
2019-04-14T04:51:05.028Z,100424.13
2019-04-14T04:53:35.393Z,100422.23
2019-04-14T04:56:05.770Z,100424.65
2019-04-14T04:58:35.216Z,100429.11
2019-04-14T05:01:05.647Z,100428.58
2019-04-14T05:03:36.390Z,100427.84
2019-04-14T05:06:59.263Z,100434.01
2019-04-14T05:09:32.432Z,100431.92
2019-04-14T05:12:15.385Z,100433.13
2019-04-14T05:15:01.422Z,100433.34
2019-04-14T05:17:38.896Z,100439.92
2019-04-14T05:20:09.499Z,100436.99
2019-04-14T05:22:39.804Z,100440.86
2019-04-14T05:25:10.096Z,100440.30
2019-04-14T05:27:40.833Z,100441.53
2019-04-14T05:30:11.201Z,100445.18
2019-04-14T05:32:41.282Z,100442.27
2019-04-14T05:35:11.927Z,100441.69
2019-04-14T05:37:42.107Z,100441.80
2019-04-14T05:40:12.401Z,100447.47
2019-04-14T05:42:42.736Z,100440.53
2019-04-14T05:45:13.350Z,100443.52
2019-04-14T05:47:43.630Z,100442.94
2019-04-14T05:50:13.706Z,100441.55
2019-04-14T05:52:43.133Z,100450.47
2019-04-14T05:55:13.480Z,100453.39
2019-04-14T05:57:43.772Z,100459.24
2019-04-14T06:00:16.740Z,100454.22
2019-04-14T06:02:46.425Z,100457.89
2019-04-14T06:05:18.984Z,100455.77
2019-04-14T06:07:48.354Z,100457.70
2019-04-14T06:10:17.744Z,100465.06
2019-04-14T06:12:47.786Z,100461.19
2019-04-14T06:15:17.742Z,100468.06
2019-04-14T06:17:47.811Z,100463.16
2019-04-14T06:20:17.816Z,100457.66
2019-04-14T06:22:47.917Z,100455.55
2019-04-14T06:25:17.804Z,100453.35
2019-04-14T06:27:47.878Z,100452.56
2019-04-14T06:30:35.688Z,100448.58
2019-04-14T06:33:09.681Z,100444.36
2019-04-14T06:35:57.145Z,100454.66
2019-04-14T06:38:28.428Z,100450.03
2019-04-14T06:41:02.139Z,100450.32
2019-04-14T06:43:31.859Z,100452.88
2019-04-14T06:46:01.593Z,100450.84
2019-04-14T06:48:30.985Z,100457.40
2019-04-14T06:51:00.357Z,100458.64
2019-04-14T06:53:29.727Z,100466.45
2019-04-14T06:55:59.101Z,100464.43
2019-04-14T06:58:28.463Z,100464.64
2019-04-14T07:00:57.840Z,100469.66
2019-04-14T07:03:27.218Z,100469.36
2019-04-14T07:05:56.596Z,100465.72
2019-04-14T07:08:25.958Z,100460.56
2019-04-14T07:10:55.343Z,100459.88
2019-04-14T07:13:24.998Z,100457.48
2019-04-14T07:15:54.367Z,100457.55
2019-04-14T07:18:23.730Z,100462.31
2019-04-14T07:20:53.117Z,100464.28
2019-04-14T07:23:22.794Z,100462.66
2019-04-14T07:25:52.250Z,100462.76
2019-04-14T07:28:21.622Z,100465.36
2019-04-14T07:31:08.098Z,100475.84
2019-04-14T07:33:39.125Z,100476.05
2019-04-14T07:36:10.131Z,100476.22
2019-04-14T07:38:41.135Z,100478.79
2019-04-14T07:41:27.702Z,100476.69
2019-04-14T07:43:58.707Z,100478.97
2019-04-14T07:46:38.453Z,100481.99
2019-04-14T07:49:25.471Z,100482.54
2019-04-14T07:52:12.803Z,100484.16
2019-04-14T07:54:46.352Z,100487.91
2019-04-14T07:57:17.370Z,100484.75
2019-04-14T08:00:04.248Z,100490.56
2019-04-14T08:02:38.014Z,100489.77
2019-04-14T08:05:12.136Z,100495.62
2019-04-14T08:07:42.186Z,100484.22
2019-04-14T08:10:11.689Z,100487.14
2019-04-14T08:12:41.059Z,100486.09
2019-04-14T08:15:10.744Z,100486.98
2019-04-14T08:17:40.441Z,100492.66
2019-04-14T08:20:10.021Z,100492.58
2019-04-14T08:22:39.416Z,100500.68
2019-04-14T08:25:09.151Z,100494.87
2019-04-14T08:27:38.491Z,100491.93
2019-04-14T08:30:10.101Z,100497.70
2019-04-14T08:32:39.748Z,100497.82
2019-04-14T08:35:09.839Z,100493.97
2019-04-14T08:37:39.234Z,100502.70
2019-04-14T08:40:08.838Z,100503.47
2019-04-14T08:42:52.046Z,100497.97
2019-04-14T08:45:25.749Z,100501.58
2019-04-14T08:47:56.759Z,100500.94
2019-04-14T08:50:43.691Z,100504.61
2019-04-14T08:53:14.929Z,100498.25
2019-04-14T08:55:54.747Z,100493.45
2019-04-14T08:58:28.466Z,100494.53
2019-04-14T09:01:05.391Z,100497.08
2019-04-14T09:03:36.394Z,100493.84
2019-04-14T09:06:13.217Z,100489.99
2019-04-14T09:08:44.222Z,100488.57
2019-04-14T09:11:15.503Z,100486.72
2019-04-14T09:13:44.898Z,100475.67
2019-04-14T09:16:14.283Z,100484.19
2019-04-14T09:18:43.652Z,100484.23
2019-04-14T09:21:13.032Z,100485.09
2019-04-14T09:23:42.409Z,100493.23
2019-04-14T09:26:12.067Z,100483.42
2019-04-14T09:28:41.447Z,100490.38
2019-04-14T09:31:10.832Z,100488.69
2019-04-14T09:33:40.206Z,100492.06
2019-04-14T09:36:09.670Z,100492.22
2019-04-14T09:38:39.044Z,100493.18
2019-04-14T09:41:08.433Z,100495.16
2019-04-14T09:43:37.840Z,100502.13
2019-04-14T09:46:07.471Z,100497.20
2019-04-14T09:48:36.813Z,100500.11
2019-04-14T09:51:06.269Z,100498.23
2019-04-14T09:53:35.995Z,100503.47
2019-04-14T09:56:05.683Z,100506.70
2019-04-14T09:58:35.049Z,100516.61
2019-04-14T10:01:04.813Z,100512.89
2019-04-14T10:03:34.181Z,100513.00
2019-04-14T10:06:03.621Z,100507.92
2019-04-14T10:08:32.999Z,100512.53
2019-04-14T10:11:02.381Z,100511.67
2019-04-14T10:13:31.761Z,100512.18
2019-04-14T10:16:01.147Z,100512.44
2019-04-14T10:18:30.512Z,100512.41
2019-04-14T10:20:59.891Z,100512.81
2019-04-14T10:23:29.535Z,100514.42
2019-04-14T10:25:58.917Z,100517.75
2019-04-14T10:28:28.294Z,100510.79
2019-04-14T10:30:57.672Z,100511.00
2019-04-14T10:33:27.055Z,100510.05
2019-04-14T10:35:56.605Z,100503.90
2019-04-14T10:38:26.005Z,100514.94
2019-04-14T10:40:55.674Z,100511.87
2019-04-14T10:43:25.060Z,100508.98
2019-04-14T10:45:54.434Z,100510.30
2019-04-14T10:48:24.171Z,100510.97
2019-04-14T10:50:53.563Z,100509.30
2019-04-14T10:53:23.278Z,100505.09
2019-04-14T10:55:52.821Z,100501.92
2019-04-14T10:58:22.212Z,100504.11
2019-04-14T11:00:51.667Z,100507.95
2019-04-14T11:03:21.040Z,100512.59
2019-04-14T11:05:55.253Z,100507.52
2019-04-14T11:08:24.655Z,100507.18
2019-04-14T11:10:54.034Z,100507.54
2019-04-14T11:13:23.451Z,100509.20
2019-04-14T11:15:52.810Z,100499.20
2019-04-14T11:18:22.216Z,100503.13
2019-04-14T11:20:51.920Z,100500.77
2019-04-14T11:23:21.336Z,100501.64
2019-04-14T11:25:50.856Z,100501.43
2019-04-14T11:28:21.090Z,100503.02
2019-04-14T11:30:51.206Z,100499.45
2019-04-14T11:33:25.458Z,100508.08
2019-04-14T11:35:59.170Z,100504.86
2019-04-14T11:38:33.386Z,100500.08
2019-04-14T11:41:03.024Z,100493.26
2019-04-14T11:43:32.431Z,100501.51
2019-04-14T11:46:03.765Z,100497.63
2019-04-14T11:48:32.897Z,100497.59
2019-04-14T11:51:02.303Z,100498.07
2019-04-14T11:53:31.683Z,100497.80
2019-04-14T11:56:01.463Z,100501.37
2019-04-14T11:58:30.840Z,100501.84
2019-04-14T12:01:04.791Z,100499.26
2019-04-14T12:03:36.123Z,100493.25
2019-04-14T12:06:19.356Z,100497.76
2019-04-14T12:08:55.971Z,100500.99
2019-04-14T12:11:25.365Z,100503.12
2019-04-14T12:13:55.672Z,100494.02
2019-04-14T12:16:25.069Z,100495.37
2019-04-14T12:18:54.446Z,100494.48
2019-04-14T12:21:23.835Z,100493.16
2019-04-14T12:23:53.217Z,100492.31
2019-04-14T12:26:22.601Z,100494.20
2019-04-14T12:28:51.988Z,100493.55
2019-04-14T12:31:21.852Z,100498.56
2019-04-14T12:33:51.374Z,100499.64
2019-04-14T12:36:21.448Z,100488.09
2019-04-14T12:38:51.596Z,100491.41
2019-04-14T12:41:33.220Z,100498.64
2019-04-14T12:44:04.208Z,100503.89
2019-04-14T12:46:41.639Z,100494.27
2019-04-14T12:49:18.668Z,100495.29
2019-04-14T12:51:55.226Z,100483.19
2019-04-14T12:54:25.971Z,100488.22
2019-04-14T12:56:56.640Z,100490.75
2019-04-14T12:59:26.581Z,100484.48
2019-04-14T13:02:03.496Z,100483.05
2019-04-14T13:04:32.873Z,100482.32
2019-04-14T13:07:02.263Z,100479.03
2019-04-14T13:09:31.633Z,100482.64
2019-04-14T13:12:01.024Z,100478.79
2019-04-14T13:14:30.387Z,100484.92
2019-04-14T13:16:59.773Z,100483.45
2019-04-14T13:19:29.145Z,100477.78
2019-04-14T13:21:58.782Z,100476.33
2019-04-14T13:24:28.152Z,100477.65
2019-04-14T13:26:57.605Z,100471.66
2019-04-14T13:29:26.996Z,100469.21
2019-04-14T13:31:56.375Z,100468.83
2019-04-14T13:34:25.756Z,100467.70
2019-04-14T13:36:55.467Z,100461.08
2019-04-14T13:39:25.832Z,100461.02
2019-04-14T13:41:55.203Z,100459.06
2019-04-14T13:44:24.592Z,100460.56
2019-04-14T13:46:53.970Z,100454.44
2019-04-14T13:49:23.346Z,100458.10
2019-04-14T13:51:52.971Z,100463.38
2019-04-14T13:54:22.620Z,100458.50
2019-04-14T13:56:52.204Z,100453.81
2019-04-14T13:59:22.240Z,100456.25
2019-04-14T14:01:52.244Z,100449.90
2019-04-14T14:04:22.776Z,100451.16
2019-04-14T14:06:53.217Z,100453.42
2019-04-14T14:09:23.226Z,100449.96
2019-04-14T14:12:04.065Z,100450.75
2019-04-14T14:14:50.993Z,100444.56
2019-04-14T14:17:30.935Z,100437.19
2019-04-14T14:20:04.910Z,100417.47
2019-04-14T14:22:36.157Z,100432.83
2019-04-14T14:25:07.589Z,100423.49
2019-04-14T14:27:36.964Z,100425.16
2019-04-14T14:30:10.111Z,100430.66
2019-04-14T14:32:39.736Z,100419.01
2019-04-14T14:35:09.264Z,100422.94
2019-04-14T14:37:38.635Z,100413.96
2019-04-14T14:40:08.428Z,100417.53
2019-04-14T14:42:37.798Z,100420.34
2019-04-14T14:45:16.551Z,100425.38
2019-04-14T14:47:47.705Z,100432.81
2019-04-14T14:50:19.696Z,100431.95
2019-04-14T14:52:49.043Z,100428.23
2019-04-14T14:55:18.439Z,100424.91
2019-04-14T14:57:47.793Z,100428.45
2019-04-14T15:00:27.973Z,100426.07
2019-04-14T15:02:57.352Z,100415.91
2019-04-14T15:05:27.522Z,100426.05
2019-04-14T15:07:56.894Z,100430.09
2019-04-14T15:10:26.295Z,100429.30
2019-04-14T15:12:55.741Z,100427.23
2019-04-14T15:15:25.216Z,100414.09
2019-04-14T15:17:54.600Z,100421.61
2019-04-14T15:20:24.298Z,100410.70
2019-04-14T15:22:54.124Z,100424.11
2019-04-14T15:25:24.299Z,100420.75
2019-04-14T15:27:54.139Z,100429.68
2019-04-14T15:30:24.370Z,100435.02
2019-04-14T15:32:53.993Z,100427.08
2019-04-14T15:35:24.167Z,100427.55
2019-04-14T15:37:53.960Z,100429.94
2019-04-14T15:40:24.104Z,100425.70
2019-04-14T15:42:54.020Z,100424.84
2019-04-14T15:45:24.107Z,100443.00
2019-04-14T15:47:54.030Z,100443.08
2019-04-14T15:50:24.215Z,100443.66
2019-04-14T15:52:54.135Z,100444.81
2019-04-14T15:55:24.085Z,100447.16
2019-04-14T15:57:55.808Z,100446.94
2019-04-14T16:00:36.212Z,100449.32
2019-04-14T16:03:25.439Z,100451.24
2019-04-14T16:06:05.040Z,100444.45
2019-04-14T16:08:38.566Z,100449.63
2019-04-14T16:11:15.320Z,100449.95
2019-04-14T16:13:54.856Z,100455.80
2019-04-14T16:16:42.181Z,100454.18
2019-04-14T16:19:18.877Z,100463.05
2019-04-14T16:21:48.264Z,100466.64
2019-04-14T16:24:17.649Z,100468.75
2019-04-14T16:26:48.709Z,100467.84
2019-04-14T16:29:25.565Z,100467.65
2019-04-14T16:32:05.791Z,100467.67
2019-04-14T16:34:36.809Z,100484.52
2019-04-14T16:37:06.194Z,100487.67
2019-04-14T16:39:35.900Z,100492.45
2019-04-14T16:42:05.653Z,100493.81
2019-04-14T16:44:35.029Z,100498.82
2019-04-14T16:47:05.079Z,100493.03
2019-04-14T16:49:34.465Z,100491.45
2019-04-14T16:52:11.388Z,100495.27
2019-04-14T16:54:58.623Z,100494.48
2019-04-14T16:57:45.321Z,100491.59
2019-04-14T17:00:17.042Z,100497.07
2019-04-14T17:02:46.692Z,100497.66
2019-04-14T17:05:16.156Z,100505.02
2019-04-14T17:07:45.549Z,100505.53
2019-04-14T17:10:14.958Z,100508.86
2019-04-14T17:12:44.359Z,100507.40
2019-04-14T17:15:27.664Z,100509.45
2019-04-14T17:18:07.738Z,100507.55
2019-04-14T17:20:54.906Z,100510.05
2019-04-14T17:23:33.219Z,100513.45
2019-04-14T17:26:10.517Z,100517.65
2019-04-14T17:28:56.285Z,100518.79
2019-04-14T17:31:27.587Z,100522.98
2019-04-14T17:33:58.612Z,100522.22
2019-04-14T17:36:29.664Z,100524.95
2019-04-14T17:39:00.959Z,100519.23
2019-04-14T17:41:32.986Z,100525.60
2019-04-14T17:44:07.028Z,100527.89
2019-04-14T17:46:38.077Z,100533.86
2019-04-14T17:49:09.341Z,100533.22
2019-04-14T17:51:42.797Z,100544.06
2019-04-14T17:54:13.819Z,100540.55
2019-04-14T17:56:45.147Z,100543.73
2019-04-14T17:59:18.808Z,100544.14
2019-04-14T18:02:08.130Z,100540.20
2019-04-14T18:04:57.213Z,100548.27
2019-04-14T18:07:44.277Z,100551.60
2019-04-14T18:10:30.666Z,100548.67
2019-04-14T18:13:19.830Z,100557.95
2019-04-14T18:15:59.579Z,100561.73
2019-04-14T18:18:39.337Z,100570.05
2019-04-14T18:21:10.063Z,100567.55
2019-04-14T18:23:39.434Z,100580.57
2019-04-14T18:26:09.690Z,100576.83
2019-04-14T18:28:46.389Z,100583.60
2019-04-14T18:31:33.938Z,100588.12
2019-04-14T18:34:08.266Z,100591.61
2019-04-14T18:36:39.621Z,100589.64
2019-04-14T18:39:14.462Z,100592.71
2019-04-14T18:41:45.497Z,100600.08
2019-04-14T18:44:19.348Z,100606.70
2019-04-14T18:47:06.252Z,100615.36
2019-04-14T18:49:43.216Z,100615.25
2019-04-14T18:52:14.212Z,100614.53
2019-04-14T18:54:57.182Z,100617.31
2019-04-14T18:57:28.502Z,100621.37
2019-04-14T18:59:59.511Z,100625.30
2019-04-14T19:02:28.895Z,100628.81
2019-04-14T19:04:58.281Z,100631.39
2019-04-14T19:07:27.674Z,100631.19
2019-04-14T19:09:57.203Z,100637.09
2019-04-14T19:12:34.169Z,100632.05
2019-04-14T19:15:06.563Z,100638.61
2019-04-14T19:17:56.042Z,100642.31
2019-04-14T19:20:25.415Z,100641.38
2019-04-14T19:22:54.832Z,100647.52
2019-04-14T19:25:24.169Z,100638.97
2019-04-14T19:27:53.549Z,100647.73
2019-04-14T19:30:23.436Z,100654.02
2019-04-14T19:32:52.915Z,100664.11
2019-04-14T19:35:22.307Z,100665.66
2019-04-14T19:37:51.701Z,100671.23
2019-04-14T19:40:21.342Z,100680.53
2019-04-14T19:42:51.104Z,100684.13
2019-04-14T19:45:20.722Z,100691.76
2019-04-14T19:47:50.489Z,100692.20
2019-04-14T19:50:19.859Z,100698.70
2019-04-14T19:52:49.251Z,100702.25
2019-04-14T19:55:20.553Z,100701.05
2019-04-14T19:57:49.727Z,100714.41
2019-04-14T20:00:19.698Z,100710.98
2019-04-14T20:02:49.071Z,100714.56
2019-04-14T20:05:18.568Z,100714.03
2019-04-14T20:07:48.015Z,100710.73
2019-04-14T20:10:17.404Z,100709.28
2019-04-14T20:12:46.777Z,100715.82
2019-04-14T20:15:18.003Z,100718.24
2019-04-14T20:17:57.875Z,100719.69
2019-04-14T20:20:45.087Z,100711.05
2019-04-14T20:23:22.064Z,100712.67
2019-04-14T20:26:11.217Z,100715.37
2019-04-14T20:28:42.231Z,100711.09
2019-04-14T20:31:29.843Z,100715.52
2019-04-14T20:33:59.604Z,100716.14
2019-04-14T20:36:28.984Z,100714.53
2019-04-14T20:38:58.354Z,100715.02
2019-04-14T20:41:27.723Z,100717.30
2019-04-14T20:43:57.161Z,100716.03
2019-04-14T20:46:26.543Z,100713.58
2019-04-14T20:48:55.912Z,100714.60
2019-04-14T20:51:25.298Z,100709.95
2019-04-14T20:53:54.668Z,100714.68
2019-04-14T20:56:24.082Z,100719.09
2019-04-14T20:58:53.664Z,100725.00
2019-04-14T21:01:23.309Z,100735.86
2019-04-14T21:03:54.321Z,100732.20
2019-04-14T21:06:25.639Z,100735.38
2019-04-14T21:09:11.383Z,100730.11
2019-04-14T21:11:42.409Z,100712.77
2019-04-14T21:14:15.927Z,100703.27
2019-04-14T21:16:52.994Z,100699.47
2019-04-14T21:19:24.285Z,100702.54
2019-04-14T21:21:55.297Z,100706.83
2019-04-14T21:24:35.024Z,100714.01
2019-04-14T21:27:15.343Z,100721.04
2019-04-14T21:29:49.406Z,100724.42
2019-04-14T21:32:26.208Z,100715.32
2019-04-14T21:35:15.218Z,100707.48
2019-04-14T21:37:58.509Z,100700.77
2019-04-14T21:40:45.521Z,100700.39
2019-04-14T21:43:14.973Z,100704.91
2019-04-14T21:45:44.478Z,100706.25
2019-04-14T21:48:13.852Z,100707.84
2019-04-14T21:50:43.224Z,100712.84
2019-04-14T21:53:12.601Z,100712.35
2019-04-14T21:55:42.364Z,100714.66
2019-04-14T21:58:25.228Z,100709.23
2019-04-14T22:01:38.578Z,100714.33
2019-04-14T22:04:21.693Z,100718.41
2019-04-14T22:06:52.981Z,100712.84
2019-04-14T22:09:24.336Z,100712.66
2019-04-14T22:11:53.780Z,100708.69
2019-04-14T22:14:23.220Z,100700.62
2019-04-14T22:16:52.587Z,100704.80
2019-04-14T22:19:21.967Z,100708.88
2019-04-14T22:21:51.597Z,100712.28
2019-04-14T22:24:21.092Z,100727.95
2019-04-14T22:26:50.560Z,100732.78
2019-04-14T22:29:19.935Z,100730.48
2019-04-14T22:31:49.305Z,100728.87
2019-04-14T22:34:18.990Z,100732.49
2019-04-14T22:36:48.365Z,100726.86
2019-04-14T22:39:17.914Z,100725.60
2019-04-14T22:41:47.277Z,100731.19
2019-04-14T22:44:16.909Z,100744.05
2019-04-14T22:46:46.337Z,100739.63
2019-04-14T22:49:16.021Z,100745.33
2019-04-14T22:51:45.382Z,100747.87
2019-04-14T22:54:14.779Z,100745.61
2019-04-14T22:56:44.454Z,100747.13
2019-04-14T22:59:14.161Z,100740.50
2019-04-14T23:01:45.169Z,100748.69
2019-04-14T23:04:16.201Z,100749.22
2019-04-14T23:06:50.235Z,100752.75
2019-04-14T23:09:21.262Z,100752.67
2019-04-14T23:12:08.480Z,100751.55
2019-04-14T23:14:54.274Z,100761.36
2019-04-14T23:17:41.941Z,100765.80
2019-04-14T23:20:13.280Z,100767.48
2019-04-14T23:23:05.807Z,100758.47
2019-04-14T23:25:35.329Z,100760.53
2019-04-14T23:28:04.687Z,100763.31
2019-04-14T23:30:34.493Z,100761.73
2019-04-14T23:33:04.562Z,100768.75
2019-04-14T23:35:34.584Z,100771.66
2019-04-14T23:38:04.527Z,100764.16
2019-04-14T23:40:34.612Z,100763.69
2019-04-14T23:43:04.616Z,100760.84
2019-04-14T23:45:34.609Z,100763.89
2019-04-14T23:48:04.614Z,100762.92
2019-04-14T23:50:34.691Z,100754.69
2019-04-14T23:53:05.040Z,100756.22
2019-04-14T23:55:34.745Z,100761.48
2019-04-14T23:58:04.734Z,100768.22
